sensor_id;sensor_type;location;lat;lon;timestamp;P1;durP1;ratioP1;P2;durP2;ratioP2
47053;SDS011;32811;52.382;5.270;2022-10-31T00:00:54;3.83;;;1.20;;
47053;SDS011;32811;52.382;5.270;2022-10-31T00:04:16;2.20;;;1.40;;
47053;SDS011;32811;52.382;5.270;2022-10-31T00:06:43;3.70;;;1.40;;
47053;SDS011;32811;52.382;5.270;2022-10-31T00:09:10;2.78;;;1.40;;
47053;SDS011;32811;52.382;5.270;2022-10-31T00:11:37;5.00;;;1.35;;
47053;SDS011;32811;52.382;5.270;2022-10-31T00:14:03;3.08;;;1.35;;
47053;SDS011;32811;52.382;5.270;2022-10-31T00:16:30;4.63;;;1.40;;
47053;SDS011;32811;52.382;5.270;2022-10-31T00:18:58;1.85;;;1.30;;
47053;SDS011;32811;52.382;5.270;2022-10-31T00:21:28;3.50;;;1.40;;
47053;SDS011;32811;52.382;5.270;2022-10-31T00:23:57;3.17;;;1.67;;
47053;SDS011;32811;52.382;5.270;2022-10-31T00:26:26;3.03;;;1.70;;
47053;SDS011;32811;52.382;5.270;2022-10-31T00:28:57;2.88;;;1.70;;
47053;SDS011;32811;52.382;5.270;2022-10-31T00:35:11;2.70;;;1.67;;
47053;SDS011;32811;52.382;5.270;2022-10-31T00:37:38;5.65;;;2.03;;
47053;SDS011;32811;52.382;5.270;2022-10-31T00:40:05;3.58;;;1.65;;
47053;SDS011;32811;52.382;5.270;2022-10-31T00:42:40;3.30;;;1.40;;
47053;SDS011;32811;52.382;5.270;2022-10-31T00:45:10;2.35;;;1.55;;
47053;SDS011;32811;52.382;5.270;2022-10-31T00:47:37;4.20;;;1.65;;
47053;SDS011;32811;52.382;5.270;2022-10-31T00:50:05;6.32;;;1.67;;
47053;SDS011;32811;52.382;5.270;2022-10-31T00:52:33;12.20;;;1.90;;
47053;SDS011;32811;52.382;5.270;2022-10-31T00:54:59;2.75;;;1.52;;
47053;SDS011;32811;52.382;5.270;2022-10-31T00:57:26;3.53;;;1.73;;
47053;SDS011;32811;52.382;5.270;2022-10-31T00:59:53;6.15;;;2.05;;
47053;SDS011;32811;52.382;5.270;2022-10-31T01:02:20;3.78;;;2.10;;
47053;SDS011;32811;52.382;5.270;2022-10-31T01:04:46;6.15;;;2.00;;
47053;SDS011;32811;52.382;5.270;2022-10-31T01:07:13;2.35;;;1.73;;
47053;SDS011;32811;52.382;5.270;2022-10-31T01:09:40;9.05;;;2.80;;
47053;SDS011;32811;52.382;5.270;2022-10-31T01:12:07;3.38;;;1.50;;
47053;SDS011;32811;52.382;5.270;2022-10-31T01:14:34;2.60;;;1.80;;
47053;SDS011;32811;52.382;5.270;2022-10-31T01:17:01;5.53;;;2.20;;
47053;SDS011;32811;52.382;5.270;2022-10-31T01:19:28;7.10;;;2.20;;
47053;SDS011;32811;52.382;5.270;2022-10-31T01:21:54;3.35;;;2.05;;
47053;SDS011;32811;52.382;5.270;2022-10-31T01:24:21;4.72;;;1.65;;
47053;SDS011;32811;52.382;5.270;2022-10-31T01:26:48;2.90;;;1.83;;
47053;SDS011;32811;52.382;5.270;2022-10-31T01:29:15;6.10;;;2.53;;
47053;SDS011;32811;52.382;5.270;2022-10-31T01:31:41;2.15;;;1.75;;
47053;SDS011;32811;52.382;5.270;2022-10-31T01:34:12;4.15;;;1.83;;
47053;SDS011;32811;52.382;5.270;2022-10-31T01:36:41;8.07;;;2.60;;
47053;SDS011;32811;52.382;5.270;2022-10-31T01:39:11;8.35;;;2.15;;
47053;SDS011;32811;52.382;5.270;2022-10-31T01:41:40;3.60;;;2.13;;
47053;SDS011;32811;52.382;5.270;2022-10-31T01:49:43;2.88;;;1.77;;
47053;SDS011;32811;52.382;5.270;2022-10-31T01:52:19;2.97;;;1.88;;
47053;SDS011;32811;52.382;5.270;2022-10-31T01:55:05;3.33;;;1.75;;
47053;SDS011;32811;52.382;5.270;2022-10-31T01:57:35;2.47;;;1.92;;
47053;SDS011;32811;52.382;5.270;2022-10-31T02:00:07;4.45;;;2.25;;
47053;SDS011;32811;52.382;5.270;2022-10-31T02:02:35;5.07;;;2.58;;
47053;SDS011;32811;52.382;5.270;2022-10-31T02:05:04;3.53;;;2.08;;
47053;SDS011;32811;52.382;5.270;2022-10-31T02:08:23;4.18;;;2.22;;
47053;SDS011;32811;52.382;5.270;2022-10-31T02:10:29;6.45;;;2.70;;
47053;SDS011;32811;52.382;5.270;2022-10-31T02:12:58;3.13;;;2.20;;
47053;SDS011;32811;52.382;5.270;2022-10-31T02:15:28;6.63;;;2.60;;
47053;SDS011;32811;52.382;5.270;2022-10-31T02:17:56;9.90;;;3.20;;
47053;SDS011;32811;52.382;5.270;2022-10-31T02:20:23;5.93;;;2.45;;
47053;SDS011;32811;52.382;5.270;2022-10-31T02:23:03;5.95;;;3.22;;
47053;SDS011;32811;52.382;5.270;2022-10-31T02:31:46;3.95;;;2.60;;
47053;SDS011;32811;52.382;5.270;2022-10-31T02:37:01;4.47;;;2.33;;
47053;SDS011;32811;52.382;5.270;2022-10-31T02:39:36;4.10;;;2.53;;
47053;SDS011;32811;52.382;5.270;2022-10-31T02:42:15;2.90;;;2.17;;
47053;SDS011;32811;52.382;5.270;2022-10-31T02:44:55;3.55;;;2.45;;
47053;SDS011;32811;52.382;5.270;2022-10-31T02:47:27;3.53;;;1.92;;
47053;SDS011;32811;52.382;5.270;2022-10-31T02:52:30;3.22;;;2.08;;
47053;SDS011;32811;52.382;5.270;2022-10-31T02:55:09;2.80;;;1.98;;
47053;SDS011;32811;52.382;5.270;2022-10-31T02:57:42;3.33;;;2.28;;
47053;SDS011;32811;52.382;5.270;2022-10-31T03:00:09;4.55;;;2.60;;
47053;SDS011;32811;52.382;5.270;2022-10-31T03:08:34;5.00;;;2.50;;
47053;SDS011;32811;52.382;5.270;2022-10-31T03:11:08;10.88;;;2.42;;
47053;SDS011;32811;52.382;5.270;2022-10-31T03:13:47;6.57;;;3.50;;
47053;SDS011;32811;52.382;5.270;2022-10-31T03:16:39;3.40;;;2.60;;
47053;SDS011;32811;52.382;5.270;2022-10-31T03:22:04;4.20;;;2.90;;
47053;SDS011;32811;52.382;5.270;2022-10-31T03:24:43;2.88;;;2.10;;
47053;SDS011;32811;52.382;5.270;2022-10-31T03:27:13;4.97;;;3.67;;
47053;SDS011;32811;52.382;5.270;2022-10-31T03:29:43;5.25;;;3.70;;
47053;SDS011;32811;52.382;5.270;2022-10-31T03:32:16;5.90;;;2.85;;
47053;SDS011;32811;52.382;5.270;2022-10-31T03:34:46;3.38;;;2.70;;
47053;SDS011;32811;52.382;5.270;2022-10-31T03:37:17;4.00;;;3.42;;
47053;SDS011;32811;52.382;5.270;2022-10-31T03:39:47;5.10;;;3.00;;
47053;SDS011;32811;52.382;5.270;2022-10-31T03:42:20;4.63;;;2.97;;
47053;SDS011;32811;52.382;5.270;2022-10-31T03:44:52;4.60;;;3.30;;
47053;SDS011;32811;52.382;5.270;2022-10-31T03:47:22;4.00;;;3.25;;
47053;SDS011;32811;52.382;5.270;2022-10-31T03:49:49;3.90;;;3.42;;
47053;SDS011;32811;52.382;5.270;2022-10-31T03:52:31;8.48;;;3.67;;
47053;SDS011;32811;52.382;5.270;2022-10-31T03:55:13;4.35;;;3.63;;
47053;SDS011;32811;52.382;5.270;2022-10-31T04:00:19;4.25;;;3.72;;
47053;SDS011;32811;52.382;5.270;2022-10-31T04:02:57;4.05;;;3.42;;
47053;SDS011;32811;52.382;5.270;2022-10-31T04:05:30;5.03;;;3.90;;
47053;SDS011;32811;52.382;5.270;2022-10-31T04:07:58;5.43;;;4.22;;
47053;SDS011;32811;52.382;5.270;2022-10-31T04:10:27;8.55;;;4.40;;
47053;SDS011;32811;52.382;5.270;2022-10-31T04:13:01;4.90;;;3.60;;
47053;SDS011;32811;52.382;5.270;2022-10-31T04:15:32;7.35;;;5.03;;
47053;SDS011;32811;52.382;5.270;2022-10-31T04:18:00;7.22;;;4.43;;
47053;SDS011;32811;52.382;5.270;2022-10-31T04:20:30;7.65;;;4.30;;
47053;SDS011;32811;52.382;5.270;2022-10-31T04:22:59;5.35;;;4.20;;
47053;SDS011;32811;52.382;5.270;2022-10-31T04:25:27;6.22;;;4.82;;
47053;SDS011;32811;52.382;5.270;2022-10-31T04:27:54;6.55;;;4.72;;
47053;SDS011;32811;52.382;5.270;2022-10-31T04:30:21;8.45;;;5.40;;
47053;SDS011;32811;52.382;5.270;2022-10-31T04:32:48;7.78;;;5.45;;
47053;SDS011;32811;52.382;5.270;2022-10-31T04:35:15;8.23;;;6.05;;
47053;SDS011;32811;52.382;5.270;2022-10-31T04:37:42;6.85;;;6.13;;
47053;SDS011;32811;52.382;5.270;2022-10-31T04:40:09;13.23;;;6.63;;
47053;SDS011;32811;52.382;5.270;2022-10-31T04:42:36;7.47;;;5.05;;
47053;SDS011;32811;52.382;5.270;2022-10-31T04:45:03;7.22;;;5.07;;
47053;SDS011;32811;52.382;5.270;2022-10-31T04:47:32;8.07;;;5.32;;
47053;SDS011;32811;52.382;5.270;2022-10-31T04:50:00;5.97;;;5.28;;
47053;SDS011;32811;52.382;5.270;2022-10-31T04:52:28;7.10;;;6.40;;
47053;SDS011;32811;52.382;5.270;2022-10-31T04:54:54;7.03;;;5.72;;
47053;SDS011;32811;52.382;5.270;2022-10-31T04:57:21;6.40;;;5.78;;
47053;SDS011;32811;52.382;5.270;2022-10-31T04:59:47;7.25;;;5.32;;
47053;SDS011;32811;52.382;5.270;2022-10-31T05:02:14;8.98;;;5.60;;
47053;SDS011;32811;52.382;5.270;2022-10-31T05:04:41;7.35;;;5.63;;
47053;SDS011;32811;52.382;5.270;2022-10-31T05:07:10;6.57;;;5.88;;
47053;SDS011;32811;52.382;5.270;2022-10-31T05:09:36;9.80;;;5.50;;
47053;SDS011;32811;52.382;5.270;2022-10-31T05:12:03;8.35;;;5.85;;
47053;SDS011;32811;52.382;5.270;2022-10-31T05:14:30;6.40;;;5.45;;
47053;SDS011;32811;52.382;5.270;2022-10-31T05:16:57;8.20;;;7.22;;
47053;SDS011;32811;52.382;5.270;2022-10-31T05:19:24;7.47;;;6.05;;
47053;SDS011;32811;52.382;5.270;2022-10-31T05:21:51;10.65;;;6.95;;
47053;SDS011;32811;52.382;5.270;2022-10-31T05:24:18;8.45;;;6.18;;
47053;SDS011;32811;52.382;5.270;2022-10-31T05:26:48;7.65;;;6.85;;
47053;SDS011;32811;52.382;5.270;2022-10-31T05:29:15;11.23;;;6.60;;
47053;SDS011;32811;52.382;5.270;2022-10-31T05:31:41;9.68;;;7.00;;
47053;SDS011;32811;52.382;5.270;2022-10-31T05:34:08;9.13;;;6.97;;
47053;SDS011;32811;52.382;5.270;2022-10-31T05:36:35;8.13;;;6.82;;
47053;SDS011;32811;52.382;5.270;2022-10-31T05:39:02;8.55;;;6.95;;
47053;SDS011;32811;52.382;5.270;2022-10-31T05:41:28;10.65;;;7.65;;
47053;SDS011;32811;52.382;5.270;2022-10-31T05:43:55;7.93;;;6.78;;
47053;SDS011;32811;52.382;5.270;2022-10-31T05:46:21;11.40;;;8.02;;
47053;SDS011;32811;52.382;5.270;2022-10-31T05:48:48;7.93;;;6.95;;
47053;SDS011;32811;52.382;5.270;2022-10-31T05:51:14;12.52;;;7.47;;
47053;SDS011;32811;52.382;5.270;2022-10-31T05:53:41;10.52;;;7.43;;
47053;SDS011;32811;52.382;5.270;2022-10-31T05:59:55;8.00;;;7.20;;
47053;SDS011;32811;52.382;5.270;2022-10-31T06:02:22;8.85;;;7.75;;
47053;SDS011;32811;52.382;5.270;2022-10-31T06:04:48;10.45;;;7.72;;
47053;SDS011;32811;52.382;5.270;2022-10-31T06:07:15;10.48;;;7.63;;
47053;SDS011;32811;52.382;5.270;2022-10-31T06:09:41;9.05;;;7.63;;
47053;SDS011;32811;52.382;5.270;2022-10-31T06:12:09;10.23;;;7.60;;
47053;SDS011;32811;52.382;5.270;2022-10-31T06:14:35;10.20;;;7.68;;
47053;SDS011;32811;52.382;5.270;2022-10-31T06:17:02;12.23;;;7.60;;
47053;SDS011;32811;52.382;5.270;2022-10-31T06:19:28;16.23;;;8.43;;
47053;SDS011;32811;52.382;5.270;2022-10-31T06:21:55;10.10;;;7.13;;
47053;SDS011;32811;52.382;5.270;2022-10-31T06:24:21;10.68;;;7.47;;
47053;SDS011;32811;52.382;5.270;2022-10-31T06:26:48;11.07;;;8.10;;
47053;SDS011;32811;52.382;5.270;2022-10-31T06:29:22;10.07;;;7.75;;
47053;SDS011;32811;52.382;5.270;2022-10-31T06:31:52;9.27;;;8.13;;
47053;SDS011;32811;52.382;5.270;2022-10-31T06:34:19;10.30;;;7.28;;
47053;SDS011;32811;52.382;5.270;2022-10-31T06:40:26;10.13;;;9.00;;
47053;SDS011;32811;52.382;5.270;2022-10-31T06:42:58;12.10;;;8.75;;
47053;SDS011;32811;52.382;5.270;2022-10-31T06:45:26;8.55;;;7.75;;
47053;SDS011;32811;52.382;5.270;2022-10-31T06:47:54;9.23;;;8.25;;
47053;SDS011;32811;52.382;5.270;2022-10-31T06:50:41;10.90;;;7.30;;
47053;SDS011;32811;52.382;5.270;2022-10-31T06:53:08;7.68;;;6.85;;
47053;SDS011;32811;52.382;5.270;2022-10-31T06:55:40;12.45;;;8.75;;
47053;SDS011;32811;52.382;5.270;2022-10-31T06:58:08;8.55;;;7.63;;
47053;SDS011;32811;52.382;5.270;2022-10-31T07:00:36;12.75;;;8.23;;
47053;SDS011;32811;52.382;5.270;2022-10-31T07:03:04;13.15;;;9.73;;
47053;SDS011;32811;52.382;5.270;2022-10-31T07:05:33;12.98;;;9.32;;
47053;SDS011;32811;52.382;5.270;2022-10-31T07:08:02;14.27;;;10.15;;
47053;SDS011;32811;52.382;5.270;2022-10-31T07:10:31;14.95;;;9.80;;
47053;SDS011;32811;52.382;5.270;2022-10-31T07:13:06;15.63;;;9.80;;
47053;SDS011;32811;52.382;5.270;2022-10-31T07:15:36;15.55;;;10.35;;
47053;SDS011;32811;52.382;5.270;2022-10-31T07:18:05;11.98;;;9.35;;
47053;SDS011;32811;52.382;5.270;2022-10-31T07:20:34;13.90;;;9.70;;
47053;SDS011;32811;52.382;5.270;2022-10-31T07:23:01;17.67;;;12.02;;
47053;SDS011;32811;52.382;5.270;2022-10-31T07:25:29;15.07;;;11.40;;
47053;SDS011;32811;52.382;5.270;2022-10-31T07:27:56;15.70;;;12.02;;
47053;SDS011;32811;52.382;5.270;2022-10-31T07:30:23;17.58;;;11.02;;
47053;SDS011;32811;52.382;5.270;2022-10-31T07:32:50;17.95;;;10.80;;
47053;SDS011;32811;52.382;5.270;2022-10-31T07:35:23;18.88;;;12.48;;
47053;SDS011;32811;52.382;5.270;2022-10-31T07:37:52;12.70;;;10.95;;
47053;SDS011;32811;52.382;5.270;2022-10-31T07:40:19;17.60;;;11.50;;
47053;SDS011;32811;52.382;5.270;2022-10-31T07:42:47;12.80;;;10.98;;
47053;SDS011;32811;52.382;5.270;2022-10-31T07:45:17;14.13;;;10.95;;
47053;SDS011;32811;52.382;5.270;2022-10-31T07:47:46;15.50;;;11.40;;
47053;SDS011;32811;52.382;5.270;2022-10-31T07:50:17;16.25;;;12.02;;
47053;SDS011;32811;52.382;5.270;2022-10-31T07:52:47;15.25;;;10.70;;
47053;SDS011;32811;52.382;5.270;2022-10-31T07:55:14;18.95;;;12.10;;
47053;SDS011;32811;52.382;5.270;2022-10-31T07:57:41;26.42;;;13.30;;
47053;SDS011;32811;52.382;5.270;2022-10-31T08:00:08;18.42;;;11.95;;
47053;SDS011;32811;52.382;5.270;2022-10-31T08:02:36;18.88;;;11.90;;
47053;SDS011;32811;52.382;5.270;2022-10-31T08:05:03;32.08;;;13.88;;
47053;SDS011;32811;52.382;5.270;2022-10-31T08:07:29;19.05;;;14.38;;
47053;SDS011;32811;52.382;5.270;2022-10-31T08:10:05;21.85;;;14.30;;
47053;SDS011;32811;52.382;5.270;2022-10-31T08:12:32;22.50;;;14.15;;
47053;SDS011;32811;52.382;5.270;2022-10-31T08:14:59;21.55;;;14.65;;
47053;SDS011;32811;52.382;5.270;2022-10-31T08:17:25;21.38;;;14.43;;
47053;SDS011;32811;52.382;5.270;2022-10-31T08:19:52;21.10;;;14.80;;
47053;SDS011;32811;52.382;5.270;2022-10-31T08:22:19;20.70;;;15.73;;
47053;SDS011;32811;52.382;5.270;2022-10-31T08:24:45;18.67;;;13.38;;
47053;SDS011;32811;52.382;5.270;2022-10-31T08:27:12;23.48;;;14.00;;
47053;SDS011;32811;52.382;5.270;2022-10-31T08:29:38;16.42;;;12.27;;
47053;SDS011;32811;52.382;5.270;2022-10-31T08:32:05;22.02;;;14.30;;
47053;SDS011;32811;52.382;5.270;2022-10-31T08:34:31;20.80;;;12.20;;
47053;SDS011;32811;52.382;5.270;2022-10-31T08:36:58;19.70;;;13.80;;
47053;SDS011;32811;52.382;5.270;2022-10-31T08:39:25;19.98;;;13.07;;
47053;SDS011;32811;52.382;5.270;2022-10-31T08:41:51;14.05;;;11.45;;
47053;SDS011;32811;52.382;5.270;2022-10-31T08:44:18;16.83;;;12.23;;
47053;SDS011;32811;52.382;5.270;2022-10-31T08:47:00;19.90;;;13.18;;
47053;SDS011;32811;52.382;5.270;2022-10-31T08:49:34;20.13;;;12.82;;
47053;SDS011;32811;52.382;5.270;2022-10-31T08:52:18;15.50;;;12.80;;
47053;SDS011;32811;52.382;5.270;2022-10-31T08:55:22;16.35;;;12.35;;
47053;SDS011;32811;52.382;5.270;2022-10-31T08:57:53;14.88;;;11.85;;
47053;SDS011;32811;52.382;5.270;2022-10-31T09:00:22;23.52;;;13.93;;
47053;SDS011;32811;52.382;5.270;2022-10-31T09:02:54;20.20;;;13.80;;
47053;SDS011;32811;52.382;5.270;2022-10-31T09:05:21;16.95;;;13.18;;
47053;SDS011;32811;52.382;5.270;2022-10-31T09:07:48;17.27;;;13.00;;
47053;SDS011;32811;52.382;5.270;2022-10-31T09:10:15;20.20;;;14.68;;
47053;SDS011;32811;52.382;5.270;2022-10-31T09:12:41;20.92;;;13.15;;
47053;SDS011;32811;52.382;5.270;2022-10-31T09:15:08;17.48;;;13.13;;
47053;SDS011;32811;52.382;5.270;2022-10-31T09:17:36;19.00;;;13.73;;
47053;SDS011;32811;52.382;5.270;2022-10-31T09:20:02;15.40;;;13.00;;
47053;SDS011;32811;52.382;5.270;2022-10-31T09:22:29;19.92;;;14.05;;
47053;SDS011;32811;52.382;5.270;2022-10-31T09:24:56;18.70;;;13.80;;
47053;SDS011;32811;52.382;5.270;2022-10-31T09:27:22;17.83;;;13.63;;
47053;SDS011;32811;52.382;5.270;2022-10-31T09:29:49;18.38;;;13.68;;
47053;SDS011;32811;52.382;5.270;2022-10-31T09:32:15;19.75;;;13.57;;
47053;SDS011;32811;52.382;5.270;2022-10-31T09:34:42;22.55;;;14.65;;
47053;SDS011;32811;52.382;5.270;2022-10-31T09:37:08;19.25;;;13.85;;
47053;SDS011;32811;52.382;5.270;2022-10-31T09:39:35;20.85;;;14.52;;
47053;SDS011;32811;52.382;5.270;2022-10-31T09:42:15;23.92;;;14.32;;
47053;SDS011;32811;52.382;5.270;2022-10-31T09:47:39;22.92;;;14.50;;
47053;SDS011;32811;52.382;5.270;2022-10-31T09:52:41;19.92;;;12.80;;
47053;SDS011;32811;52.382;5.270;2022-10-31T09:55:16;23.88;;;13.93;;
47053;SDS011;32811;52.382;5.270;2022-10-31T09:57:46;23.20;;;13.38;;
47053;SDS011;32811;52.382;5.270;2022-10-31T10:00:18;17.95;;;13.38;;
47053;SDS011;32811;52.382;5.270;2022-10-31T10:05:21;24.08;;;12.68;;
47053;SDS011;32811;52.382;5.270;2022-10-31T10:07:59;24.65;;;11.93;;
47053;SDS011;32811;52.382;5.270;2022-10-31T10:18:38;18.58;;;10.65;;
47053;SDS011;32811;52.382;5.270;2022-10-31T10:24:17;15.88;;;10.13;;
47053;SDS011;32811;52.382;5.270;2022-10-31T10:27:47;23.75;;;10.73;;
47053;SDS011;32811;52.382;5.270;2022-10-31T10:38:02;13.48;;;9.43;;
47053;SDS011;32811;52.382;5.270;2022-10-31T10:40:37;15.38;;;9.43;;
47053;SDS011;32811;52.382;5.270;2022-10-31T10:43:51;13.25;;;9.02;;
47053;SDS011;32811;52.382;5.270;2022-10-31T10:51:58;10.73;;;7.90;;
47053;SDS011;32811;52.382;5.270;2022-10-31T11:00:41;10.85;;;8.32;;
47053;SDS011;32811;52.382;5.270;2022-10-31T11:03:16;14.32;;;7.72;;
47053;SDS011;32811;52.382;5.270;2022-10-31T11:05:57;14.05;;;7.93;;
47053;SDS011;32811;52.382;5.270;2022-10-31T11:08:31;9.13;;;6.95;;
47053;SDS011;32811;52.382;5.270;2022-10-31T11:11:19;10.77;;;8.05;;
47053;SDS011;32811;52.382;5.270;2022-10-31T11:13:55;10.43;;;6.65;;
47053;SDS011;32811;52.382;5.270;2022-10-31T11:16:33;10.38;;;6.22;;
47053;SDS011;32811;52.382;5.270;2022-10-31T11:19:07;13.93;;;7.90;;
47053;SDS011;32811;52.382;5.270;2022-10-31T11:21:34;13.30;;;7.38;;
47053;SDS011;32811;52.382;5.270;2022-10-31T11:24:23;7.78;;;5.97;;
47053;SDS011;32811;52.382;5.270;2022-10-31T11:26:51;11.30;;;6.15;;
47053;SDS011;32811;52.382;5.270;2022-10-31T11:29:28;20.70;;;6.63;;
47053;SDS011;32811;52.382;5.270;2022-10-31T11:31:55;11.75;;;6.35;;
47053;SDS011;32811;52.382;5.270;2022-10-31T11:34:31;5.53;;;4.95;;
47053;SDS011;32811;52.382;5.270;2022-10-31T11:37:14;8.38;;;4.88;;
47053;SDS011;32811;52.382;5.270;2022-10-31T11:39:41;10.07;;;5.78;;
47053;SDS011;32811;52.382;5.270;2022-10-31T11:42:11;13.88;;;6.57;;
47053;SDS011;32811;52.382;5.270;2022-10-31T11:44:41;14.00;;;7.10;;
47053;SDS011;32811;52.382;5.270;2022-10-31T11:47:11;10.90;;;7.18;;
47053;SDS011;32811;52.382;5.270;2022-10-31T11:49:42;8.25;;;7.18;;
47053;SDS011;32811;52.382;5.270;2022-10-31T11:57:47;14.88;;;9.40;;
47053;SDS011;32811;52.382;5.270;2022-10-31T12:05:57;15.25;;;9.15;;
47053;SDS011;32811;52.382;5.270;2022-10-31T12:08:31;16.63;;;8.57;;
47053;SDS011;32811;52.382;5.270;2022-10-31T12:16:34;18.83;;;10.50;;
47053;SDS011;32811;52.382;5.270;2022-10-31T12:22:20;20.25;;;9.02;;
47053;SDS011;32811;52.382;5.270;2022-10-31T12:33:07;18.52;;;9.90;;
47053;SDS011;32811;52.382;5.270;2022-10-31T12:36:15;14.50;;;9.73;;
47053;SDS011;32811;52.382;5.270;2022-10-31T12:44:06;21.63;;;11.50;;
47053;SDS011;32811;52.382;5.270;2022-10-31T12:46:50;18.80;;;9.90;;
47053;SDS011;32811;52.382;5.270;2022-10-31T12:49:35;15.77;;;9.82;;
47053;SDS011;32811;52.382;5.270;2022-10-31T12:55:29;16.55;;;11.13;;
47053;SDS011;32811;52.382;5.270;2022-10-31T12:58:17;19.02;;;10.93;;
47053;SDS011;32811;52.382;5.270;2022-10-31T13:00:51;22.73;;;12.43;;
47053;SDS011;32811;52.382;5.270;2022-10-31T13:03:55;25.58;;;11.45;;
47053;SDS011;32811;52.382;5.270;2022-10-31T13:06:33;22.67;;;12.40;;
47053;SDS011;32811;52.382;5.270;2022-10-31T13:09:10;23.10;;;10.82;;
47053;SDS011;32811;52.382;5.270;2022-10-31T13:11:47;21.77;;;13.00;;
47053;SDS011;32811;52.382;5.270;2022-10-31T13:16:56;23.50;;;13.77;;
47053;SDS011;32811;52.382;5.270;2022-10-31T13:19:25;21.88;;;12.75;;
47053;SDS011;32811;52.382;5.270;2022-10-31T13:24:41;23.17;;;13.68;;
47053;SDS011;32811;52.382;5.270;2022-10-31T13:27:23;26.13;;;13.67;;
47053;SDS011;32811;52.382;5.270;2022-10-31T13:29:58;40.72;;;14.70;;
47053;SDS011;32811;52.382;5.270;2022-10-31T13:32:35;29.45;;;14.68;;
47053;SDS011;32811;52.382;5.270;2022-10-31T13:35:33;23.30;;;14.23;;
47053;SDS011;32811;52.382;5.270;2022-10-31T13:46:36;28.60;;;15.02;;
47053;SDS011;32811;52.382;5.270;2022-10-31T13:49:36;24.30;;;14.30;;
47053;SDS011;32811;52.382;5.270;2022-10-31T14:00:00;23.30;;;12.98;;
47053;SDS011;32811;52.382;5.270;2022-10-31T14:02:33;24.25;;;11.90;;
47053;SDS011;32811;52.382;5.270;2022-10-31T14:05:03;24.05;;;12.48;;
47053;SDS011;32811;52.382;5.270;2022-10-31T14:07:41;21.52;;;12.00;;
47053;SDS011;32811;52.382;5.270;2022-10-31T14:12:48;23.00;;;12.32;;
47053;SDS011;32811;52.382;5.270;2022-10-31T14:15:25;27.38;;;13.98;;
47053;SDS011;32811;52.382;5.270;2022-10-31T14:18:01;24.23;;;12.90;;
47053;SDS011;32811;52.382;5.270;2022-10-31T14:20:34;24.20;;;13.50;;
47053;SDS011;32811;52.382;5.270;2022-10-31T14:23:10;26.17;;;14.48;;
47053;SDS011;32811;52.382;5.270;2022-10-31T14:26:19;26.80;;;13.98;;
47053;SDS011;32811;52.382;5.270;2022-10-31T14:31:51;24.98;;;13.55;;
47053;SDS011;32811;52.382;5.270;2022-10-31T14:34:20;21.65;;;13.77;;
47053;SDS011;32811;52.382;5.270;2022-10-31T14:39:44;28.27;;;13.73;;
47053;SDS011;32811;52.382;5.270;2022-10-31T14:45:25;22.13;;;13.65;;
47053;SDS011;32811;52.382;5.270;2022-10-31T14:50:57;26.10;;;12.90;;
47053;SDS011;32811;52.382;5.270;2022-10-31T14:53:33;26.15;;;13.88;;
47053;SDS011;32811;52.382;5.270;2022-10-31T14:56:02;19.45;;;12.98;;
47053;SDS011;32811;52.382;5.270;2022-10-31T15:01:05;21.75;;;12.88;;
47053;SDS011;32811;52.382;5.270;2022-10-31T15:03:33;23.58;;;13.18;;
47053;SDS011;32811;52.382;5.270;2022-10-31T15:06:10;23.05;;;13.20;;
47053;SDS011;32811;52.382;5.270;2022-10-31T15:08:40;24.50;;;13.27;;
47053;SDS011;32811;52.382;5.270;2022-10-31T15:13:52;26.20;;;13.02;;
47053;SDS011;32811;52.382;5.270;2022-10-31T15:16:27;23.20;;;12.85;;
47053;SDS011;32811;52.382;5.270;2022-10-31T15:18:59;23.02;;;13.05;;
47053;SDS011;32811;52.382;5.270;2022-10-31T15:21:30;24.75;;;14.52;;
47053;SDS011;32811;52.382;5.270;2022-10-31T15:23:59;22.83;;;12.82;;
47053;SDS011;32811;52.382;5.270;2022-10-31T15:26:32;22.85;;;12.30;;
47053;SDS011;32811;52.382;5.270;2022-10-31T15:29:13;29.65;;;14.05;;
47053;SDS011;32811;52.382;5.270;2022-10-31T15:31:53;26.10;;;13.25;;
47053;SDS011;32811;52.382;5.270;2022-10-31T15:34:40;19.65;;;12.15;;
47053;SDS011;32811;52.382;5.270;2022-10-31T15:37:14;20.58;;;12.02;;
47053;SDS011;32811;52.382;5.270;2022-10-31T15:39:43;24.13;;;13.07;;
47053;SDS011;32811;52.382;5.270;2022-10-31T15:42:29;38.03;;;14.85;;
47053;SDS011;32811;52.382;5.270;2022-10-31T15:45:03;19.33;;;13.30;;
47053;SDS011;32811;52.382;5.270;2022-10-31T15:47:46;23.15;;;13.27;;
47053;SDS011;32811;52.382;5.270;2022-10-31T15:50:37;23.75;;;13.43;;
47053;SDS011;32811;52.382;5.270;2022-10-31T15:53:14;25.60;;;13.45;;
47053;SDS011;32811;52.382;5.270;2022-10-31T15:55:47;24.13;;;12.95;;
47053;SDS011;32811;52.382;5.270;2022-10-31T15:58:17;21.67;;;13.00;;
47053;SDS011;32811;52.382;5.270;2022-10-31T16:00:44;24.83;;;14.68;;
47053;SDS011;32811;52.382;5.270;2022-10-31T16:03:24;24.90;;;13.82;;
47053;SDS011;32811;52.382;5.270;2022-10-31T16:05:54;28.50;;;14.57;;
47053;SDS011;32811;52.382;5.270;2022-10-31T16:10:55;29.25;;;13.88;;
47053;SDS011;32811;52.382;5.270;2022-10-31T16:13:25;23.85;;;13.20;;
47053;SDS011;32811;52.382;5.270;2022-10-31T16:15:55;23.60;;;14.32;;
47053;SDS011;32811;52.382;5.270;2022-10-31T16:18:44;24.98;;;14.15;;
47053;SDS011;32811;52.382;5.270;2022-10-31T16:21:11;23.98;;;14.02;;
47053;SDS011;32811;52.382;5.270;2022-10-31T16:23:39;27.13;;;13.90;;
47053;SDS011;32811;52.382;5.270;2022-10-31T16:26:17;33.50;;;15.15;;
47053;SDS011;32811;52.382;5.270;2022-10-31T16:28:54;33.40;;;15.75;;
47053;SDS011;32811;52.382;5.270;2022-10-31T16:31:37;22.20;;;14.25;;
47053;SDS011;32811;52.382;5.270;2022-10-31T16:36:41;27.58;;;15.32;;
47053;SDS011;32811;52.382;5.270;2022-10-31T16:39:08;29.70;;;14.38;;
47053;SDS011;32811;52.382;5.270;2022-10-31T16:41:41;27.23;;;14.98;;
47053;SDS011;32811;52.382;5.270;2022-10-31T16:44:21;28.83;;;14.93;;
47053;SDS011;32811;52.382;5.270;2022-10-31T16:47:08;26.95;;;16.50;;
47053;SDS011;32811;52.382;5.270;2022-10-31T16:49:38;30.48;;;15.38;;
47053;SDS011;32811;52.382;5.270;2022-10-31T16:52:05;24.38;;;14.02;;
47053;SDS011;32811;52.382;5.270;2022-10-31T16:54:32;27.33;;;14.07;;
47053;SDS011;32811;52.382;5.270;2022-10-31T16:56:59;23.20;;;14.20;;
47053;SDS011;32811;52.382;5.270;2022-10-31T16:59:28;27.67;;;14.10;;
47053;SDS011;32811;52.382;5.270;2022-10-31T17:01:56;25.23;;;13.90;;
47053;SDS011;32811;52.382;5.270;2022-10-31T17:04:24;27.08;;;13.68;;
47053;SDS011;32811;52.382;5.270;2022-10-31T17:06:51;27.77;;;14.88;;
47053;SDS011;32811;52.382;5.270;2022-10-31T17:09:17;29.70;;;15.35;;
47053;SDS011;32811;52.382;5.270;2022-10-31T17:11:45;24.40;;;13.52;;
47053;SDS011;32811;52.382;5.270;2022-10-31T17:14:15;29.35;;;15.27;;
47053;SDS011;32811;52.382;5.270;2022-10-31T17:16:43;27.30;;;15.10;;
47053;SDS011;32811;52.382;5.270;2022-10-31T17:19:10;26.95;;;14.45;;
47053;SDS011;32811;52.382;5.270;2022-10-31T17:21:37;30.02;;;13.65;;
47053;SDS011;32811;52.382;5.270;2022-10-31T17:24:05;22.13;;;13.75;;
47053;SDS011;32811;52.382;5.270;2022-10-31T17:26:33;25.05;;;15.00;;
47053;SDS011;32811;52.382;5.270;2022-10-31T17:28:59;26.17;;;13.98;;
47053;SDS011;32811;52.382;5.270;2022-10-31T17:31:29;30.00;;;14.98;;
47053;SDS011;32811;52.382;5.270;2022-10-31T17:33:58;27.00;;;14.68;;
47053;SDS011;32811;52.382;5.270;2022-10-31T17:36:29;27.20;;;13.40;;
47053;SDS011;32811;52.382;5.270;2022-10-31T17:38:56;32.50;;;14.23;;
47053;SDS011;32811;52.382;5.270;2022-10-31T17:41:23;24.63;;;13.10;;